Time;durP1;ratioP1;P1;durP2;ratioP2;P2;SDS_P1;SDS_P2;PMS_P1;PMS_P2;Temp;Humidity;BMP_temperature;BMP_pressure;BME280_temperature;BME280_humidity;BME280_pressure;Samples;Min_cycle;Max_cycle;Signal;HPM_P1;HPM_P2
2022/08/09 00:01:42;;;;;;;5.40;4.17;;;19.90;1.00;;;;;;6278657;28;20230;-53
2022/08/09 00:04:56;;;;;;;4.03;3.83;;;19.90;1.00;;;;;;6285009;28;20601;-55
2022/08/09 00:08:20;;;;;;;4.43;4.27;;;19.90;1.00;;;;;;6280328;28;20233;-53
2022/08/09 00:11:34;;;;;;;4.67;4.37;;;19.90;1.00;;;;;;6265064;28;20766;-53
2022/08/09 00:14:57;;;;;;;4.20;3.90;;;19.90;1.00;;;;;;6282171;28;20255;-54
2022/08/09 00:18:08;;;;;;;6.37;4.60;;;19.90;1.00;;;;;;6272523;28;20548;-55
2022/08/09 00:21:14;;;;;;;4.57;4.27;;;19.90;1.00;;;;;;6273841;28;20240;-54
2022/08/09 00:24:19;;;;;;;4.17;3.87;;;19.90;1.00;;;;;;6289870;28;20244;-54
2022/08/09 00:27:22;;;;;;;4.40;4.30;;;19.90;1.00;;;;;;6270175;28;20560;-54
2022/08/09 00:30:29;;;;;;;4.50;4.20;;;19.90;1.00;;;;;;6265036;28;20238;-54
2022/08/09 00:33:34;;;;;;;4.13;3.73;;;19.90;1.00;;;;;;6270738;28;20373;-55
2022/08/09 00:36:52;;;;;;;4.87;4.43;;;19.90;1.00;;;;;;6290084;28;20229;-54
2022/08/09 00:39:56;;;;;;;4.37;4.17;;;19.90;1.00;;;;;;6286173;28;20637;-55
2022/08/09 00:43:16;;;;;;;4.67;4.37;;;19.90;1.00;;;;;;6278257;28;20703;-54
2022/08/09 00:46:40;;;;;;;4.53;4.33;;;19.90;1.00;;;;;;6285109;28;20237;-53
2022/08/09 00:49:59;;;;;;;4.60;4.30;;;19.90;1.00;;;;;;6285599;28;20606;-53
2022/08/09 00:53:03;;;;;;;4.40;4.10;;;20.00;1.00;;;;;;6262804;28;20229;-55
2022/08/09 00:56:15;;;;;;;5.47;4.13;;;19.90;1.00;;;;;;6261534;28;20226;-54
2022/08/09 00:59:18;;;;;;;5.40;3.90;;;19.90;1.00;;;;;;6257824;28;20256;-55
2022/08/09 01:02:48;;;;;;;5.03;4.17;;;19.90;1.00;;;;;;6260615;28;20783;-54
2022/08/09 01:06:03;;;;;;;4.67;4.27;;;19.90;1.00;;;;;;6274669;28;20236;-54
2022/08/09 01:09:26;;;;;;;4.40;4.17;;;19.90;1.00;;;;;;6260860;28;20252;-55
2022/08/09 01:12:45;;;;;;;4.10;3.90;;;19.90;1.00;;;;;;6260631;28;20233;-54
2022/08/09 01:15:52;;;;;;;4.60;4.30;;;19.90;1.00;;;;;;6284559;28;20256;-54
2022/08/09 01:19:01;;;;;;;4.43;4.13;;;19.90;1.00;;;;;;6285099;28;20249;-54
2022/08/09 01:22:53;;;;;;;4.30;4.00;;;19.90;1.00;;;;;;6269231;28;20230;-55
2022/08/09 01:26:08;;;;;;;4.53;4.13;;;19.80;1.00;;;;;;6259796;28;20242;-56
2022/08/09 01:29:15;;;;;;;4.13;4.03;;;19.80;1.00;;;;;;6260733;28;20242;-55
2022/08/09 01:32:21;;;;;;;4.87;4.43;;;19.80;1.00;;;;;;6261814;28;20238;-55
2022/08/09 01:35:52;;;;;;;5.57;4.53;;;19.90;1.00;;;;;;6285362;28;20248;-55
2022/08/09 01:38:57;;;;;;;4.77;4.33;;;19.90;1.00;;;;;;6284180;28;20621;-54
2022/08/09 01:42:02;;;;;;;5.70;4.23;;;19.80;1.00;;;;;;6285025;28;20243;-54
2022/08/09 01:45:15;;;;;;;4.80;4.50;;;19.80;1.00;;;;;;6285003;28;20285;-53
2022/08/09 01:48:20;;;;;;;4.83;4.57;;;19.70;1.00;;;;;;6260516;28;20284;-55
2022/08/09 01:51:33;;;;;;;4.57;4.17;;;19.80;1.00;;;;;;6259605;28;20241;-55
2022/08/09 01:54:40;;;;;;;4.60;4.30;;;19.70;1.00;;;;;;6260446;28;20614;-54
2022/08/09 01:57:48;;;;;;;4.97;4.57;;;19.60;1.00;;;;;;6260461;28;20252;-54
2022/08/09 02:00:57;;;;;;;4.77;3.90;;;19.60;1.00;;;;;;6260156;28;20328;-54
2022/08/09 02:04:03;;;;;;;5.00;4.70;;;19.60;1.00;;;;;;6272124;28;20452;-54
2022/08/09 02:07:15;;;;;;;4.73;4.40;;;19.50;1.00;;;;;;6284431;28;20230;-55
2022/08/09 02:10:40;;;;;;;4.70;4.30;;;19.50;1.00;;;;;;6256267;28;20233;-53
2022/08/09 02:13:52;;;;;;;4.20;4.00;;;19.50;1.00;;;;;;6279900;28;20221;-55
2022/08/09 02:17:12;;;;;;;4.67;4.37;;;19.50;1.00;;;;;;6284289;28;20237;-55
2022/08/09 02:20:40;;;;;;;4.77;4.13;;;19.50;1.00;;;;;;6283981;28;20256;-55
2022/08/09 02:23:52;;;;;;;4.70;4.50;;;19.50;1.00;;;;;;6263834;28;20316;-55
2022/08/09 02:27:01;;;;;;;4.70;4.50;;;19.50;1.00;;;;;;6258999;28;20250;-55
2022/08/09 02:30:10;;;;;;;5.80;4.50;;;19.50;1.00;;;;;;6265965;28;20237;-53
2022/08/09 02:33:19;;;;;;;4.50;4.20;;;19.50;1.00;;;;;;6284327;28;20324;-54
2022/08/09 02:36:37;;;;;;;3.90;3.80;;;19.50;1.00;;;;;;6284747;28;20310;-55
2022/08/09 02:39:48;;;;;;;5.20;4.80;;;19.50;1.00;;;;;;6259275;28;20242;-54
2022/08/09 02:43:04;;;;;;;5.07;4.87;;;19.40;1.00;;;;;;6256730;28;20226;-55
2022/08/09 02:46:10;;;;;;;5.20;4.83;;;19.50;1.00;;;;;;6276160;28;20238;-54
2022/08/09 02:49:16;;;;;;;4.27;4.03;;;19.40;1.00;;;;;;6282423;28;20388;-54
2022/08/09 02:52:21;;;;;;;5.30;4.90;;;19.50;1.00;;;;;;6284030;28;20225;-56
2022/08/09 02:55:26;;;;;;;5.43;4.87;;;19.50;1.00;;;;;;6275477;28;20383;-55
2022/08/09 02:58:50;;;;;;;4.63;4.13;;;19.50;1.00;;;;;;6257747;28;20234;-54
2022/08/09 03:01:57;;;;;;;4.83;4.47;;;19.40;1.00;;;;;;6258318;28;20674;-54
2022/08/09 03:05:11;;;;;;;5.33;5.00;;;19.40;1.00;;;;;;6274986;28;20226;-54
2022/08/09 03:08:19;;;;;;;4.63;4.33;;;19.40;1.00;;;;;;6255616;28;20244;-47
2022/08/09 03:11:23;;;;;;;6.00;4.60;;;19.40;1.00;;;;;;6258429;28;20241;-56
2022/08/09 03:14:47;;;;;;;4.73;4.37;;;19.40;1.00;;;;;;6273168;28;20491;-54
2022/08/09 03:17:51;;;;;;;4.67;4.47;;;19.40;1.00;;;;;;6276121;28;20240;-54
2022/08/09 03:21:02;;;;;;;5.40;5.07;;;19.40;1.00;;;;;;6280635;28;20627;-53
2022/08/09 03:24:06;;;;;;;4.93;4.60;;;19.40;1.00;;;;;;6282939;28;20302;-54
2022/08/09 03:27:13;;;;;;;4.97;4.67;;;19.40;1.00;;;;;;6281923;28;20233;-55
2022/08/09 03:30:19;;;;;;;5.70;5.10;;;19.30;1.00;;;;;;6282668;28;20241;-54
2022/08/09 03:33:35;;;;;;;5.40;5.00;;;19.30;1.00;;;;;;6270065;28;20233;-55
2022/08/09 03:36:59;;;;;;;7.17;5.30;;;19.30;1.00;;;;;;6279875;28;20222;-55
2022/08/09 03:40:22;;;;;;;6.87;5.07;;;19.30;1.00;;;;;;6279927;28;20241;-53
2022/08/09 03:43:28;;;;;;;5.70;5.20;;;19.30;1.00;;;;;;6281059;28;20298;-55
2022/08/09 03:46:33;;;;;;;5.40;5.00;;;19.30;1.00;;;;;;6283389;28;20242;-54
2022/08/09 03:49:37;;;;;;;5.20;4.80;;;19.30;1.00;;;;;;6282720;28;20237;-55
2022/08/09 03:53:03;;;;;;;7.23;5.20;;;19.30;1.00;;;;;;6286764;28;20269;-54
2022/08/09 03:56:07;;;;;;;5.03;4.57;;;19.30;1.00;;;;;;6288666;28;20314;-55
2022/08/09 03:59:11;;;;;;;4.67;4.47;;;19.30;1.00;;;;;;6283228;28;20266;-54
2022/08/09 04:02:19;;;;;;;5.13;4.73;;;19.30;1.00;;;;;;6274910;28;20230;-53
2022/08/09 04:05:29;;;;;;;5.03;4.70;;;19.30;1.00;;;;;;6282741;28;20225;-55
2022/08/09 04:08:43;;;;;;;5.13;4.93;;;19.30;1.00;;;;;;6270569;28;20288;-55
2022/08/09 04:12:06;;;;;;;5.10;4.90;;;19.30;1.00;;;;;;6282916;28;20386;-55
2022/08/09 04:15:14;;;;;;;7.33;5.20;;;19.20;1.00;;;;;;6286317;28;20233;-55
2022/08/09 04:18:39;;;;;;;5.77;5.37;;;19.20;1.00;;;;;;6284702;28;20404;-56
2022/08/09 04:21:44;;;;;;;5.33;5.03;;;19.20;1.00;;;;;;6287210;28;20334;-53
2022/08/09 04:24:50;;;;;;;5.33;5.03;;;19.20;1.00;;;;;;6286752;28;20580;-54
2022/08/09 04:27:54;;;;;;;5.60;5.20;;;19.20;1.00;;;;;;6286225;28;20317;-54
2022/08/09 04:31:05;;;;;;;5.40;5.00;;;19.20;1.00;;;;;;6286931;28;20245;-54
2022/08/09 04:34:12;;;;;;;5.63;5.23;;;19.30;1.00;;;;;;6285965;28;20237;-55
2022/08/09 04:37:20;;;;;;;8.63;5.30;;;19.40;1.00;;;;;;6285690;28;20324;-55
2022/08/09 04:40:46;;;;;;;5.87;5.47;;;19.30;1.00;;;;;;6286200;28;20237;-54
2022/08/09 04:43:49;;;;;;;4.97;4.77;;;19.30;1.00;;;;;;6284383;28;20234;-55
2022/08/09 04:47:09;;;;;;;5.47;5.00;;;19.40;1.00;;;;;;6286227;28;20229;-55
2022/08/09 04:50:12;;;;;;;5.40;5.10;;;19.40;1.00;;;;;;6286343;28;20363;-54
2022/08/09 04:53:15;;;;;;;6.03;5.03;;;19.40;1.00;;;;;;6284605;28;20665;-55
2022/08/09 04:56:19;;;;;;;5.63;5.27;;;19.40;1.00;;;;;;6283528;28;20257;-54
2022/08/09 04:59:27;;;;;;;5.90;5.40;;;19.50;1.00;;;;;;6285909;28;20241;-54
2022/08/09 05:02:32;;;;;;;5.50;5.20;;;19.50;1.00;;;;;;6281226;28;20610;-53
2022/08/09 05:05:35;;;;;;;6.03;5.63;;;19.50;1.00;;;;;;6285763;28;20237;-55
2022/08/09 05:08:54;;;;;;;6.13;5.17;;;19.60;1.00;;;;;;6283255;28;20240;-53
2022/08/09 05:12:04;;;;;;;6.03;5.20;;;19.60;1.00;;;;;;6285229;28;20233;-55
2022/08/09 05:15:08;;;;;;;7.33;5.40;;;19.60;1.00;;;;;;6285676;28;20258;-55
2022/08/09 05:18:13;;;;;;;5.40;4.87;;;19.70;1.00;;;;;;6285699;28;20245;-54
2022/08/09 05:21:36;;;;;;;8.33;5.23;;;19.70;1.00;;;;;;6286278;28;20241;-55
2022/08/09 05:24:54;;;;;;;5.57;5.07;;;19.80;1.00;;;;;;6282772;28;20248;-54
2022/08/09 05:28:04;;;;;;;11.23;5.97;;;19.80;1.00;;;;;;6283948;28;20236;-55
2022/08/09 05:31:08;;;;;;;5.90;5.60;;;19.80;1.00;;;;;;6285456;28;20238;-55
2022/08/09 05:34:11;;;;;;;6.27;5.80;;;19.90;1.00;;;;;;6283972;28;20233;-54
2022/08/09 05:37:19;;;;;;;6.20;5.70;;;19.90;1.00;;;;;;6285563;28;20237;-53
2022/08/09 05:40:22;;;;;;;5.43;4.93;;;19.90;1.00;;;;;;6284546;28;20363;-56
2022/08/09 05:43:26;;;;;;;7.63;5.60;;;20.00;1.00;;;;;;6283468;28;20248;-53
2022/08/09 05:46:33;;;;;;;6.13;5.70;;;20.10;1.00;;;;;;6285080;28;20706;-54
2022/08/09 05:49:36;;;;;;;6.53;5.73;;;20.10;1.00;;;;;;6283263;28;20234;-55
2022/08/09 05:52:59;;;;;;;6.33;5.80;;;20.20;1.00;;;;;;6285326;28;20237;-54
2022/08/09 05:56:03;;;;;;;7.37;5.40;;;20.30;1.00;;;;;;6285561;28;20280;-54
2022/08/09 05:59:08;;;;;;;7.60;5.40;;;20.40;1.00;;;;;;6282154;28;20237;-54
2022/08/09 06:02:12;;;;;;;6.37;5.47;;;20.60;1.00;;;;;;6285218;28;20604;-54
2022/08/09 06:05:31;;;;;;;8.20;5.53;;;20.60;1.00;;;;;;6278625;28;20247;-55
2022/08/09 06:08:54;;;;;;;6.20;5.63;;;20.70;1.00;;;;;;6280914;28;20614;-55
2022/08/09 06:11:57;;;;;;;5.33;4.93;;;20.80;1.00;;;;;;6283967;28;20249;-54
2022/08/09 06:15:01;;;;;;;5.40;5.10;;;20.90;1.00;;;;;;6282639;28;20372;-54
2022/08/09 06:18:09;;;;;;;8.17;5.43;;;21.00;1.00;;;;;;6280675;28;20282;-54
2022/08/09 06:21:13;;;;;;;5.03;4.73;;;21.10;1.00;;;;;;6284499;28;20236;-53
2022/08/09 06:24:18;;;;;;;8.57;5.40;;;21.10;1.00;;;;;;6283768;28;20412;-55
2022/08/09 06:27:20;;;;;;;5.27;4.77;;;21.20;1.00;;;;;;6282561;28;20290;-54
2022/08/09 06:30:26;;;;;;;5.13;4.50;;;21.30;1.00;;;;;;6284438;28;20245;-55
2022/08/09 06:33:30;;;;;;;11.13;5.07;;;21.30;1.00;;;;;;6284635;28;20838;-53
2022/08/09 06:36:43;;;;;;;5.20;4.80;;;21.30;1.00;;;;;;6283636;28;20232;-54
2022/08/09 06:39:46;;;;;;;7.33;5.00;;;21.40;1.00;;;;;;6283032;28;20241;-54
2022/08/09 06:43:02;;;;;;;13.07;5.73;;;21.50;1.00;;;;;;6284242;28;20630;-56
2022/08/09 06:46:10;;;;;;;6.27;5.07;;;21.50;1.00;;;;;;6284591;28;20307;-53
2022/08/09 06:49:33;;;;;;;9.43;4.77;;;21.60;1.00;;;;;;6278025;28;20411;-53
2022/08/09 06:52:57;;;;;;;5.30;4.90;;;21.80;1.00;;;;;;6284685;28;20726;-53
2022/08/09 06:56:01;;;;;;;5.40;4.93;;;22.10;1.00;;;;;;6283215;28;20398;-56
2022/08/09 06:59:04;;;;;;;5.37;4.90;;;22.20;1.00;;;;;;6275134;28;20588;-53
2022/08/09 07:02:29;;;;;;;4.37;3.97;;;22.50;1.00;;;;;;6284450;28;20399;-55
2022/08/09 07:05:34;;;;;;;4.83;4.43;;;22.70;1.00;;;;;;6282735;28;20479;-55
2022/08/09 07:08:56;;;;;;;4.30;4.00;;;22.90;1.00;;;;;;6282888;28;20229;-54
2022/08/09 07:11:59;;;;;;;7.80;4.53;;;22.80;1.00;;;;;;6282771;28;20225;-54
2022/08/09 07:15:03;;;;;;;4.77;3.97;;;23.00;1.00;;;;;;6269935;28;20737;-55
2022/08/09 07:18:27;;;;;;;4.37;4.07;;;23.10;1.00;;;;;;6282530;28;20322;-55
2022/08/09 07:21:33;;;;;;;5.00;4.70;;;23.30;1.00;;;;;;6283947;28;20454;-54
2022/08/09 07:24:36;;;;;;;5.03;4.63;;;23.40;1.00;;;;;;6283380;28;20242;-54
2022/08/09 07:27:42;;;;;;;4.67;4.27;;;23.40;1.00;;;;;;6279075;28;20229;-54
2022/08/09 07:30:57;;;;;;;5.27;4.30;;;23.40;1.00;;;;;;6254840;28;20226;-53
2022/08/09 07:34:02;;;;;;;4.17;3.97;;;23.30;1.00;;;;;;6273481;28;20306;-54
2022/08/09 07:37:05;;;;;;;5.33;3.93;;;23.30;1.00;;;;;;6278413;28;20583;-55
2022/08/09 07:40:18;;;;;;;4.07;3.87;;;23.30;1.00;;;;;;6280958;28;20256;-55
2022/08/09 07:43:29;;;;;;;4.00;3.70;;;23.50;1.00;;;;;;6281848;28;20256;-54
2022/08/09 07:46:42;;;;;;;6.60;3.87;;;23.60;1.00;;;;;;6279841;28;20607;-58
2022/08/09 07:49:50;;;;;;;4.23;3.83;;;23.80;1.00;;;;;;6287015;28;20237;-55
2022/08/09 07:53:07;;;;;;;3.97;3.77;;;23.90;1.00;;;;;;6286717;28;20717;-55
2022/08/09 07:56:10;;;;;;;4.17;3.87;;;24.00;1.00;;;;;;6288225;28;20700;-54
2022/08/09 07:59:28;;;;;;;4.00;3.73;;;24.00;1.00;;;;;;6279982;28;20328;-53
2022/08/09 08:02:47;;;;;;;4.03;3.70;;;24.00;1.00;;;;;;6282571;28;20225;-54
2022/08/09 08:05:54;;;;;;;4.23;4.03;;;24.00;1.00;;;;;;6282052;28;20320;-54
2022/08/09 08:09:00;;;;;;;4.10;3.90;;;24.00;1.00;;;;;;6289540;28;20702;-54
2022/08/09 08:12:09;;;;;;;3.93;3.73;;;24.00;1.00;;;;;;6285018;28;20277;-54
2022/08/09 08:15:31;;;;;;;3.80;3.60;;;23.90;1.00;;;;;;6278515;28;20229;-54
2022/08/09 08:18:39;;;;;;;4.40;4.00;;;24.00;1.00;;;;;;6287193;28;20379;-56
2022/08/09 08:21:46;;;;;;;3.97;3.77;;;24.00;1.00;;;;;;6279453;28;20602;-56
2022/08/09 08:24:55;;;;;;;11.47;3.83;;;24.00;1.00;;;;;;6286964;28;20229;-54
2022/08/09 08:27:59;;;;;;;3.90;3.80;;;23.90;1.00;;;;;;6287469;28;20244;-54
2022/08/09 08:31:02;;;;;;;4.93;4.30;;;23.80;1.00;;;;;;6278365;28;20237;-56
2022/08/09 08:34:16;;;;;;;4.00;3.67;;;23.80;1.00;;;;;;6287226;28;20359;-54
2022/08/09 08:37:28;;;;;;;3.60;3.40;;;23.80;1.00;;;;;;6274089;28;20257;-54
2022/08/09 08:40:44;;;;;;;3.87;3.60;;;23.80;1.00;;;;;;6287058;28;20390;-56
2022/08/09 08:43:51;;;;;;;4.10;3.90;;;24.00;1.00;;;;;;6284541;28;20233;-54
2022/08/09 08:46:58;;;;;;;4.00;3.70;;;24.00;1.00;;;;;;6283187;28;20627;-53
2022/08/09 08:50:08;;;;;;;3.83;3.73;;;24.20;1.00;;;;;;6286496;28;20248;-53
2022/08/09 08:53:15;;;;;;;6.03;3.33;;;24.30;1.00;;;;;;6286771;28;20252;-53
2022/08/09 08:56:24;;;;;;;4.10;3.90;;;24.50;1.00;;;;;;6281971;28;20261;-54
2022/08/09 08:59:30;;;;;;;3.70;3.60;;;24.70;1.00;;;;;;6285923;28;20248;-54
2022/08/09 09:02:50;;;;;;;3.80;3.50;;;24.80;1.00;;;;;;6286126;28;20229;-54
2022/08/09 09:05:56;;;;;;;3.67;3.40;;;24.90;1.00;;;;;;6285935;28;20621;-54
2022/08/09 09:09:08;;;;;;;4.33;3.80;;;25.00;1.00;;;;;;6286581;28;20237;-53
2022/08/09 09:12:32;;;;;;;5.87;3.77;;;25.10;1.00;;;;;;6283692;28;20240;-55
2022/08/09 09:15:38;;;;;;;3.47;3.27;;;25.30;1.00;;;;;;6284342;28;20270;-56
2022/08/09 09:18:42;;;;;;;3.60;3.50;;;25.40;1.00;;;;;;6279582;28;20356;-56
2022/08/09 09:22:04;;;;;;;3.47;3.27;;;25.40;1.00;;;;;;6286222;28;20222;-54
2022/08/09 09:25:11;;;;;;;3.43;3.20;;;25.50;1.00;;;;;;6276376;28;20233;-54
2022/08/09 09:28:35;;;;;;;4.10;3.10;;;25.50;1.00;;;;;;6286633;28;20317;-54
2022/08/09 09:31:58;;;;;;;3.57;3.37;;;25.50;1.00;;;;;;6285853;28;20238;-53
2022/08/09 09:35:16;;;;;;;3.43;3.33;;;25.60;1.00;;;;;;6280318;28;20257;-56
2022/08/09 09:38:21;;;;;;;3.80;3.50;;;25.50;1.00;;;;;;6285796;28;20237;-56
2022/08/09 09:41:39;;;;;;;3.30;3.20;;;25.60;1.00;;;;;;6283732;28;20318;-55
2022/08/09 09:44:56;;;;;;;3.50;3.30;;;25.70;1.00;;;;;;6283820;28;20252;-54
2022/08/09 09:48:03;;;;;;;5.17;3.50;;;25.90;1.00;;;;;;6284870;28;20245;-55
2022/08/09 09:51:06;;;;;;;3.10;3.00;;;25.90;1.00;;;;;;6284251;28;20280;-53
2022/08/09 09:54:21;;;;;;;3.57;3.37;;;26.00;1.00;;;;;;6285457;28;20252;-54
2022/08/09 09:57:25;;;;;;;3.67;3.57;;;26.00;1.00;;;;;;6285711;28;20229;-55
2022/08/09 10:00:50;;;;;;;3.70;3.40;;;26.10;1.00;;;;;;6282699;28;20255;-53
2022/08/09 10:04:02;;;;;;;3.20;3.10;;;26.20;1.00;;;;;;6281408;28;20286;-54
2022/08/09 10:07:22;;;;;;;5.07;3.80;;;26.30;1.00;;;;;;6280421;28;20237;-54
2022/08/09 10:10:29;;;;;;;4.33;4.03;;;26.40;1.00;;;;;;6283448;28;20241;-53
2022/08/09 10:13:41;;;;;;;3.57;3.47;;;26.40;1.00;;;;;;6284112;28;20350;-54
2022/08/09 10:16:47;;;;;;;4.03;3.70;;;26.40;1.00;;;;;;6276136;28;20237;-54
2022/08/09 10:20:04;;;;;;;4.13;3.93;;;26.50;1.00;;;;;;6283847;28;20225;-55
2022/08/09 10:23:17;;;;;;;2.90;2.90;;;26.50;1.00;;;;;;6284105;28;20655;-55
2022/08/09 10:26:24;;;;;;;3.53;3.30;;;26.60;1.00;;;;;;6279958;28;20269;-55
2022/08/09 10:29:31;;;;;;;3.93;3.50;;;26.60;1.00;;;;;;6282873;28;20448;-54
2022/08/09 10:32:54;;;;;;;4.17;3.80;;;26.40;1.00;;;;;;6283258;28;20341;-54
2022/08/09 10:35:58;;;;;;;5.50;4.47;;;26.50;1.00;;;;;;6281554;28;20309;-54
2022/08/09 10:39:04;;;;;;;3.80;3.60;;;26.50;1.00;;;;;;6283603;28;20245;-53
2022/08/09 10:42:18;;;;;;;3.70;3.53;;;26.50;1.00;;;;;;6273173;28;20316;-54
2022/08/09 10:45:23;;;;;;;3.97;3.67;;;26.60;1.00;;;;;;6283605;28;20318;-55
2022/08/09 10:48:41;;;;;;;3.77;3.50;;;26.60;1.00;;;;;;6282814;28;20332;-54
2022/08/09 10:51:52;;;;;;;3.80;3.47;;;26.60;1.00;;;;;;6283255;28;20618;-56
2022/08/09 10:54:55;;;;;;;3.97;3.77;;;26.70;1.00;;;;;;6283655;28;20433;-57
2022/08/09 10:57:59;;;;;;;4.23;3.90;;;27.00;1.00;;;;;;6283783;28;20229;-56
2022/08/09 11:01:25;;;;;;;3.30;3.30;;;27.20;1.00;;;;;;6283333;28;20317;-54
2022/08/09 11:05:13;;;;;;;4.07;3.77;;;27.30;1.00;;;;;;6279631;28;20229;-54
2022/08/09 11:08:41;;;;;;;3.60;3.50;;;27.30;1.00;;;;;;6279128;28;20222;-55
2022/08/09 11:12:12;;;;;;;3.97;3.70;;;27.40;1.00;;;;;;6277600;28;20221;-55
2022/08/09 11:15:26;;;;;;;4.07;3.83;;;27.60;1.00;;;;;;6280536;28;20264;-55
2022/08/09 11:18:44;;;;;;;3.77;3.50;;;27.80;1.00;;;;;;6270407;28;20273;-53
2022/08/09 11:21:55;;;;;;;3.90;3.63;;;27.80;1.00;;;;;;6275219;28;20225;-54
2022/08/09 11:25:13;;;;;;;3.80;3.57;;;27.80;1.00;;;;;;6282357;28;20240;-54
2022/08/09 11:28:38;;;;;;;3.30;3.20;;;27.70;1.00;;;;;;6282655;28;20679;-53
2022/08/09 11:31:58;;;;;;;3.67;3.57;;;27.80;1.00;;;;;;6275410;28;20320;-55
2022/08/09 11:35:08;;;;;;;4.00;3.80;;;28.00;1.00;;;;;;6282071;28;20808;-54
2022/08/09 11:38:15;;;;;;;3.73;3.63;;;28.20;1.00;;;;;;6282860;28;21171;-54
2022/08/09 11:41:28;;;;;;;4.50;3.90;;;28.20;1.00;;;;;;6281960;28;20268;-54
2022/08/09 11:44:44;;;;;;;4.87;3.70;;;28.40;1.00;;;;;;6274822;28;20646;-55
2022/08/09 11:47:47;;;;;;;4.13;3.90;;;28.60;1.00;;;;;;6282515;28;20299;-54
2022/08/09 11:51:03;;;;;;;3.60;3.40;;;28.90;1.00;;;;;;6276620;28;20287;-55
2022/08/09 11:54:26;;;;;;;4.20;3.50;;;28.90;1.00;;;;;;6274796;28;20241;-56
2022/08/09 11:57:37;;;;;;;3.67;3.53;;;28.90;1.00;;;;;;6275012;28;20238;-54
2022/08/09 12:01:04;;;;;;;3.80;3.50;;;28.70;1.00;;;;;;6282161;28;20229;-54
2022/08/09 12:04:18;;;;;;;3.43;3.23;;;28.60;1.00;;;;;;6281992;28;20272;-54
2022/08/09 12:07:29;;;;;;;3.67;3.33;;;28.80;1.00;;;;;;6269259;28;20297;-55
2022/08/09 12:10:45;;;;;;;4.43;3.83;;;28.90;1.00;;;;;;6279119;28;20237;-53
2022/08/09 12:13:52;;;;;;;3.70;3.40;;;28.90;1.00;;;;;;6281615;28;20239;-51
2022/08/09 12:17:14;;;;;;;3.70;3.60;;;28.90;1.00;;;;;;6276100;28;20234;-55
2022/08/09 12:20:42;;;;;;;3.67;3.53;;;28.90;1.00;;;;;;6275360;28;20241;-54
2022/08/09 12:23:50;;;;;;;4.23;3.30;;;29.00;1.00;;;;;;6281920;28;20244;-55
2022/08/09 12:27:19;;;;;;;3.50;3.43;;;29.00;1.00;;;;;;6281137;28;20229;-55
2022/08/09 12:30:43;;;;;;;4.27;3.80;;;28.70;1.00;;;;;;6275995;28;20237;-53
2022/08/09 12:33:46;;;;;;;4.23;4.03;;;28.40;1.00;;;;;;6274566;28;20225;-53
2022/08/09 12:37:03;;;;;;;3.67;3.43;;;28.10;1.00;;;;;;6286095;28;20272;-55
2022/08/09 12:40:27;;;;;;;3.60;3.40;;;27.90;1.00;;;;;;6284073;28;20229;-56
2022/08/09 12:43:32;;;;;;;8.77;4.03;;;27.80;1.00;;;;;;6283671;28;20237;-53
2022/08/09 12:46:55;;;;;;;3.70;3.60;;;28.00;1.00;;;;;;6285748;28;20249;-54
2022/08/09 12:50:17;;;;;;;3.30;3.13;;;28.30;1.00;;;;;;6287319;28;20234;-54
2022/08/09 12:53:27;;;;;;;4.67;3.67;;;28.30;1.00;;;;;;6283013;28;20745;-54
2022/08/09 12:56:47;;;;;;;4.03;3.73;;;28.30;1.00;;;;;;6286135;28;20256;-55
2022/08/09 13:00:12;;;;;;;3.87;3.70;;;28.50;1.00;;;;;;6280633;28;20288;-54
2022/08/09 13:03:27;;;;;;;3.40;3.30;;;28.40;1.00;;;;;;6285272;28;20802;-54
2022/08/09 13:06:49;;;;;;;4.10;3.80;;;28.40;1.00;;;;;;6284597;28;20426;-55
2022/08/09 13:10:02;;;;;;;3.50;3.40;;;28.40;1.00;;;;;;6282844;28;20237;-55
2022/08/09 13:13:06;;;;;;;4.50;4.13;;;28.40;1.00;;;;;;6286474;28;20564;-56
2022/08/09 13:16:15;;;;;;;3.67;3.47;;;28.30;1.00;;;;;;6284384;28;20237;-54
2022/08/09 13:19:27;;;;;;;4.33;2.97;;;28.50;1.00;;;;;;6280926;28;20241;-55
2022/08/09 13:22:51;;;;;;;3.80;3.50;;;28.70;1.00;;;;;;6280883;28;20221;-54
2022/08/09 13:26:32;;;;;;;3.42;3.40;;;29.10;1.00;;;;;;6284901;28;20703;-53
2022/08/09 13:29:51;;;;;;;3.42;3.33;;;28.90;1.00;;;;;;6279814;28;20688;-53
2022/08/09 13:33:22;;;;;;;3.20;3.10;;;29.00;1.00;;;;;;6285881;28;20229;-54
2022/08/09 13:36:26;;;;;;;3.07;2.80;;;29.20;1.00;;;;;;6279567;28;20320;-54
2022/08/09 13:39:45;;;;;;;3.03;2.90;;;29.10;1.00;;;;;;6284791;28;20242;-53
2022/08/09 13:43:08;;;;;;;5.40;3.30;;;29.10;1.00;;;;;;6282545;28;20242;-55
2022/08/09 13:46:18;;;;;;;3.33;3.20;;;29.30;1.00;;;;;;6278568;28;20396;-54
2022/08/09 13:49:41;;;;;;;3.20;2.97;;;29.40;1.00;;;;;;6278653;28;20257;-53
2022/08/09 13:53:02;;;;;;;3.72;3.20;;;29.60;1.00;;;;;;6284310;28;20238;-54
2022/08/09 13:56:09;;;;;;;3.33;3.10;;;29.70;1.00;;;;;;6281281;28;20229;-55
2022/08/09 13:59:13;;;;;;;4.32;2.88;;;29.80;1.00;;;;;;6283802;28;20639;-56
2022/08/09 14:02:21;;;;;;;2.90;2.75;;;29.90;1.00;;;;;;6283983;28;20238;-56
2022/08/09 14:05:27;;;;;;;3.17;3.00;;;29.90;1.00;;;;;;6279499;28;20229;-55
2022/08/09 14:08:51;;;;;;;2.95;2.75;;;29.80;1.00;;;;;;6284032;28;20226;-54
2022/08/09 14:11:56;;;;;;;6.15;3.25;;;29.70;1.00;;;;;;6281827;28;20237;-54
2022/08/09 14:14:59;;;;;;;3.08;2.97;;;29.50;1.00;;;;;;6280288;28;20304;-56
2022/08/09 14:18:05;;;;;;;2.70;2.50;;;29.00;1.00;;;;;;6284599;28;20225;-54
2022/08/09 14:21:23;;;;;;;3.27;2.97;;;28.80;1.00;;;;;;6283372;28;20244;-53
2022/08/09 14:24:31;;;;;;;3.40;3.30;;;28.90;1.00;;;;;;6283812;28;20603;-55
2022/08/09 14:27:35;;;;;;;3.17;2.97;;;28.90;1.00;;;;;;6283930;28;20237;-54
2022/08/09 14:30:58;;;;;;;3.43;3.20;;;29.00;1.00;;;;;;6279706;28;20240;-54
2022/08/09 14:34:03;;;;;;;5.27;2.77;;;29.00;1.00;;;;;;6279789;28;20336;-54
2022/08/09 14:37:10;;;;;;;4.23;2.83;;;29.10;1.00;;;;;;6282103;28;20356;-55
2022/08/09 14:40:13;;;;;;;3.00;2.90;;;29.10;1.00;;;;;;6282590;28;20233;-63
2022/08/09 14:43:16;;;;;;;3.30;2.90;;;29.10;1.00;;;;;;6282975;28;20332;-54
2022/08/09 14:46:20;;;;;;;3.10;3.00;;;29.00;1.00;;;;;;6274560;28;20241;-54
2022/08/09 14:49:45;;;;;;;2.70;2.60;;;28.90;1.00;;;;;;6276994;28;20248;-54
2022/08/09 14:53:06;;;;;;;3.07;2.97;;;29.00;1.00;;;;;;6282483;28;20406;-54
2022/08/09 14:56:14;;;;;;;3.10;3.00;;;29.10;1.00;;;;;;6274503;28;20613;-54
2022/08/09 14:59:16;;;;;;;2.85;2.80;;;29.00;1.00;;;;;;6282264;28;20238;-53
2022/08/09 15:02:22;;;;;;;3.03;2.90;;;29.10;1.00;;;;;;6282484;28;20233;-53
2022/08/09 15:05:27;;;;;;;5.50;3.10;;;29.20;1.00;;;;;;6279032;28;20268;-53
2022/08/09 15:08:31;;;;;;;2.70;2.70;;;29.20;1.00;;;;;;6283554;28;20244;-56
2022/08/09 15:11:34;;;;;;;3.03;2.83;;;29.30;1.00;;;;;;6282285;28;20288;-54
2022/08/09 15:14:37;;;;;;;3.58;3.47;;;29.20;1.00;;;;;;6280892;28;20286;-54
2022/08/09 15:17:40;;;;;;;3.67;3.10;;;29.10;1.00;;;;;;6283245;28;20233;-54
2022/08/09 15:20:55;;;;;;;4.63;2.93;;;29.10;1.00;;;;;;6280031;28;20249;-56
2022/08/09 15:24:18;;;;;;;2.87;2.80;;;28.90;1.00;;;;;;6282916;28;20229;-55
2022/08/09 15:27:29;;;;;;;5.53;3.57;;;28.90;1.00;;;;;;6275808;28;20226;-55
2022/08/09 15:30:49;;;;;;;3.83;2.90;;;28.80;1.00;;;;;;6283326;28;20229;-53
2022/08/09 15:34:12;;;;;;;3.03;2.83;;;28.80;1.00;;;;;;6277460;28;20236;-55
2022/08/09 15:37:37;;;;;;;3.17;2.90;;;28.60;1.00;;;;;;6275866;28;20240;-54
2022/08/09 15:41:01;;;;;;;4.10;3.30;;;28.40;1.00;;;;;;6278310;28;20225;-55
2022/08/09 15:44:12;;;;;;;2.97;2.87;;;28.20;1.00;;;;;;6275322;28;20798;-53
2022/08/09 15:47:21;;;;;;;3.03;2.83;;;28.20;1.00;;;;;;6282552;28;20706;-53
2022/08/09 15:50:45;;;;;;;2.77;2.57;;;28.20;1.00;;;;;;6282880;28;20261;-55
2022/08/09 15:53:49;;;;;;;2.67;2.50;;;28.20;1.00;;;;;;6280410;28;20332;-55
2022/08/09 15:57:09;;;;;;;2.90;2.80;;;28.20;1.00;;;;;;6283051;28;20252;-54
2022/08/09 16:00:16;;;;;;;3.40;3.27;;;28.30;1.00;;;;;;6277479;28;20241;-55
2022/08/09 16:03:28;;;;;;;3.20;3.00;;;28.20;1.00;;;;;;6282274;28;20306;-53
2022/08/09 16:06:43;;;;;;;2.70;2.43;;;28.20;1.00;;;;;;6282042;28;20752;-53
2022/08/09 16:09:53;;;;;;;2.33;2.33;;;28.20;1.00;;;;;;6284424;28;20266;-55
2022/08/09 16:13:07;;;;;;;3.07;2.87;;;28.10;1.00;;;;;;6285095;28;20272;-54
2022/08/09 16:16:30;;;;;;;4.13;3.17;;;28.00;1.00;;;;;;6281359;28;20241;-53
2022/08/09 16:19:33;;;;;;;3.17;2.97;;;27.80;1.00;;;;;;6284247;28;20256;-55
2022/08/09 16:22:50;;;;;;;3.50;3.20;;;27.70;1.00;;;;;;6287417;28;20686;-54
2022/08/09 16:25:55;;;;;;;3.07;2.90;;;27.60;1.00;;;;;;6286913;28;20226;-54
2022/08/09 16:29:06;;;;;;;3.37;3.07;;;27.50;1.00;;;;;;6285293;28;20417;-56
2022/08/09 16:32:13;;;;;;;3.00;2.90;;;27.40;1.00;;;;;;6286126;28;20310;-54
2022/08/09 16:35:36;;;;;;;3.07;2.97;;;27.30;1.00;;;;;;6284200;28;20229;-53
2022/08/09 16:38:59;;;;;;;4.07;3.17;;;27.30;1.00;;;;;;6255774;28;20237;-54
2022/08/09 16:42:03;;;;;;;3.30;3.20;;;27.30;1.00;;;;;;6287575;28;20264;-53
2022/08/09 16:45:08;;;;;;;3.27;3.17;;;27.20;1.00;;;;;;6286702;28;20306;-55
2022/08/09 16:48:12;;;;;;;2.63;2.63;;;27.00;1.00;;;;;;6284236;28;20233;-55
2022/08/09 16:51:35;;;;;;;2.80;2.80;;;27.00;1.00;;;;;;6280571;28;20237;-55
2022/08/09 16:54:38;;;;;;;3.00;2.80;;;26.90;1.00;;;;;;6283530;28;21561;-53